ADDS TAF Data INFO
IDs: Format: Raw Decoded Include METARs

Data at: 0647 UTC 19 Nov 2017

KECG 190543Z 1906/2006 21018G28KT P6SM BKN250 WS020/22045KT
  FM190900 21019G29KT P6SM VCSH BKN100 WS020/22050KT
  FM191000 22019G29KT P6SM -RA SCT025 BKN045 WS020/22050KT
  FM191300 25018G29KT P6SM VCSH BKN060
  FM191400 27018G29KT P6SM BKN150
  FM200000 30014G21KT P6SM SKC